Time;durP1;ratioP1;P1;durP2;ratioP2;P2;SDS_P1;SDS_P2;PMS_P1;PMS_P2;Temp;Humidity;BMP_temperature;BMP_pressure;BME280_temperature;BME280_humidity;BME280_pressure;Samples;Min_cycle;Max_cycle;Signal;HPM_P1;HPM_P2
2020/12/17 11:01:40;;;;;;;3.33;1.33;;;10.80;99.90;;;;;;5028907;23;20261;-79
2020/12/17 11:04:08;;;;;;;2.77;1.10;;;10.70;99.90;;;;;;4894518;29;20229;-76
2020/12/17 11:06:34;;;;;;;3.90;1.30;;;10.60;99.90;;;;;;4898760;29;20350;-73
2020/12/17 11:09:00;;;;;;;8.30;2.40;;;10.60;99.90;;;;;;4898482;29;20310;-76
2020/12/17 11:11:27;;;;;;;3.27;1.30;;;10.60;99.90;;;;;;4899697;29;20219;-81
2020/12/17 11:13:53;;;;;;;3.67;1.20;;;10.50;99.90;;;;;;4888713;29;20275;-79
2020/12/17 11:16:20;;;;;;;7.03;1.50;;;10.50;99.90;;;;;;4879836;29;20271;-80
2020/12/17 11:18:47;;;;;;;8.60;1.63;;;10.50;99.90;;;;;;4880495;29;20231;-77
2020/12/17 11:21:20;;;;;;;6.70;1.77;;;10.70;99.90;;;;;;4899051;29;20265;-81
2020/12/17 11:23:46;;;;;;;7.57;1.50;;;10.60;99.90;;;;;;4898725;29;20214;-79
2020/12/17 11:26:13;;;;;;;4.13;1.50;;;10.60;99.90;;;;;;4898074;29;20218;-79
2020/12/17 11:28:39;;;;;;;5.27;1.57;;;10.60;99.90;;;;;;4898368;29;20252;-78
2020/12/17 11:31:07;;;;;;;3.17;1.30;;;10.60;99.90;;;;;;4893437;29;20209;-76
2020/12/17 11:33:33;;;;;;;3.63;1.03;;;10.60;99.90;;;;;;4899583;29;20210;-77
2020/12/17 11:35:59;;;;;;;3.53;1.07;;;10.80;99.90;;;;;;4897394;29;20573;-77
2020/12/17 11:38:27;;;;;;;9.00;1.70;;;10.90;99.90;;;;;;4899155;29;20899;-76
2020/12/17 11:40:53;;;;;;;4.10;1.10;;;11.00;99.90;;;;;;4899914;29;20210;-77
2020/12/17 11:43:19;;;;;;;3.43;1.00;;;11.10;99.90;;;;;;4899486;29;20214;-78
2020/12/17 11:45:45;;;;;;;7.63;1.20;;;11.10;99.90;;;;;;4899900;29;20210;-77
2020/12/17 11:48:12;;;;;;;4.50;1.10;;;11.10;99.90;;;;;;4899055;29;20725;-77
2020/12/17 11:50:38;;;;;;;4.40;1.20;;;11.00;99.90;;;;;;4899721;29;20210;-78
2020/12/17 11:53:04;;;;;;;7.27;1.17;;;11.00;99.90;;;;;;4899651;29;20693;-76
2020/12/17 11:55:31;;;;;;;3.70;1.47;;;11.10;99.90;;;;;;4899658;29;20214;-77
2020/12/17 11:57:58;;;;;;;5.63;1.47;;;11.00;99.90;;;;;;4899184;29;20569;-75
2020/12/17 12:00:24;;;;;;;5.83;0.90;;;10.90;99.90;;;;;;4899258;29;20237;-76
2020/12/17 12:02:50;;;;;;;2.60;0.70;;;10.90;99.90;;;;;;4899266;29;20218;-76
2020/12/17 12:05:17;;;;;;;6.20;1.23;;;10.90;99.90;;;;;;4899464;29;20222;-75
2020/12/17 12:07:43;;;;;;;2.73;0.90;;;10.80;99.90;;;;;;4898718;29;20733;-76
2020/12/17 12:10:10;;;;;;;1.80;0.80;;;10.80;99.90;;;;;;4895227;29;20713;-75
2020/12/17 12:12:37;;;;;;;4.93;1.17;;;10.70;99.90;;;;;;4897696;29;20222;-75
2020/12/17 12:15:04;;;;;;;1.53;0.80;;;10.70;99.90;;;;;;4898029;29;20240;-76
2020/12/17 12:17:31;;;;;;;1.83;0.93;;;10.70;99.90;;;;;;4898899;29;20283;-75
2020/12/17 12:19:57;;;;;;;4.50;0.90;;;10.70;99.90;;;;;;4897658;29;20269;-77
2020/12/17 12:22:23;;;;;;;7.03;0.90;;;10.80;99.90;;;;;;4897899;29;20210;-79
2020/12/17 12:24:50;;;;;;;5.43;1.17;;;10.80;99.90;;;;;;4896769;29;20571;-76
2020/12/17 12:27:16;;;;;;;2.60;1.23;;;10.80;99.90;;;;;;4897098;29;20717;-77
2020/12/17 12:29:43;;;;;;;4.20;1.17;;;10.80;99.90;;;;;;4897243;29;20238;-78
2020/12/17 12:32:09;;;;;;;2.10;1.10;;;10.80;99.90;;;;;;4896964;29;20301;-75
2020/12/17 12:34:35;;;;;;;1.70;0.97;;;10.70;99.90;;;;;;4896530;29;20669;-79
2020/12/17 12:37:02;;;;;;;2.93;1.10;;;10.80;99.90;;;;;;4897186;29;20221;-72
2020/12/17 12:39:29;;;;;;;4.80;1.07;;;10.80;99.90;;;;;;4896976;29;20226;-73
2020/12/17 12:41:55;;;;;;;1.97;0.67;;;10.80;99.90;;;;;;4896713;29;20217;-72
2020/12/17 12:44:21;;;;;;;2.77;0.80;;;10.80;99.90;;;;;;4897314;29;20202;-73
2020/12/17 12:46:48;;;;;;;3.53;0.87;;;10.90;99.90;;;;;;4896982;29;20720;-74
2020/12/17 12:49:15;;;;;;;5.13;1.40;;;11.10;99.90;;;;;;4896430;29;20234;-74
2020/12/17 12:51:41;;;;;;;2.10;0.70;;;11.20;99.90;;;;;;4896654;29;20217;-75
2020/12/17 12:54:07;;;;;;;3.93;0.80;;;11.30;99.90;;;;;;4896944;29;20673;-74
2020/12/17 12:56:34;;;;;;;3.33;0.90;;;11.30;99.90;;;;;;4896475;29;20207;-78
2020/12/17 12:59:00;;;;;;;5.17;0.87;;;11.40;99.90;;;;;;4897087;29;20325;-75
2020/12/17 13:01:34;;;;;;;3.57;0.80;;;11.50;99.90;;;;;;4896681;29;20218;-74
2020/12/17 13:04:01;;;;;;;4.43;0.77;;;11.80;99.90;;;;;;4896932;29;20214;-76
2020/12/17 13:06:27;;;;;;;1.63;0.50;;;11.90;99.90;;;;;;4897498;29;20218;-74
2020/12/17 13:08:54;;;;;;;2.93;1.00;;;12.10;99.90;;;;;;4897539;29;20250;-74
2020/12/17 13:11:22;;;;;;;3.40;0.53;;;12.10;99.90;;;;;;4897056;29;20210;-75
2020/12/17 13:13:49;;;;;;;2.73;0.67;;;12.10;99.90;;;;;;4897778;29;20217;-75
2020/12/17 13:16:22;;;;;;;1.57;0.53;;;12.10;99.90;;;;;;4899748;29;20214;-74
2020/12/17 13:18:48;;;;;;;3.03;0.60;;;12.10;99.90;;;;;;4897985;29;20230;-74
2020/12/17 13:21:19;;;;;;;4.67;1.13;;;12.20;99.90;;;;;;4900851;29;20221;-73
2020/12/17 13:23:46;;;;;;;3.03;1.13;;;12.30;99.90;;;;;;4901569;29;20218;-71
2020/12/17 13:26:12;;;;;;;6.37;0.83;;;12.20;99.90;;;;;;4900765;29;20206;-75
2020/12/17 13:28:39;;;;;;;2.70;0.73;;;12.20;99.90;;;;;;4902479;29;20328;-76
2020/12/17 13:31:05;;;;;;;3.10;0.80;;;12.30;99.90;;;;;;4901978;29;20210;-76
2020/12/17 13:33:34;;;;;;;3.00;1.00;;;12.30;99.90;;;;;;4900974;29;20589;-80
2020/12/17 13:36:01;;;;;;;3.13;0.80;;;12.30;99.90;;;;;;4900510;29;20258;-77
2020/12/17 13:38:28;;;;;;;2.47;0.70;;;12.20;99.90;;;;;;4901143;29;20282;-74
2020/12/17 13:40:54;;;;;;;2.70;0.60;;;12.30;99.90;;;;;;4900185;29;20258;-76
2020/12/17 13:43:20;;;;;;;2.23;0.50;;;12.40;99.90;;;;;;4900719;29;20258;-72
2020/12/17 13:45:49;;;;;;;3.60;0.60;;;12.40;99.90;;;;;;4900194;29;20614;-72
2020/12/17 13:48:15;;;;;;;2.60;0.67;;;12.30;99.90;;;;;;4899895;29;20246;-71
2020/12/17 13:50:41;;;;;;;2.97;0.30;;;12.30;99.90;;;;;;4900089;29;20745;-74
2020/12/17 13:53:08;;;;;;;1.40;0.50;;;12.20;99.90;;;;;;4900232;29;20214;-72
2020/12/17 13:55:35;;;;;;;2.20;0.50;;;12.10;99.90;;;;;;4900196;29;20573;-73
2020/12/17 13:58:01;;;;;;;2.10;0.80;;;12.10;99.90;;;;;;4900092;29;20269;-73
2020/12/17 14:00:27;;;;;;;2.00;0.60;;;12.20;99.90;;;;;;4900160;29;20278;-72
2020/12/17 14:02:53;;;;;;;2.57;0.93;;;12.10;99.90;;;;;;4899289;29;20218;-74
2020/12/17 14:05:20;;;;;;;5.53;0.80;;;12.10;99.90;;;;;;4899912;29;20274;-73
2020/12/17 14:07:46;;;;;;;2.50;0.50;;;12.00;99.90;;;;;;4899602;29;20234;-75
2020/12/17 14:10:17;;;;;;;2.53;0.60;;;12.00;99.90;;;;;;4898877;29;20237;-76
2020/12/17 14:12:44;;;;;;;1.43;0.40;;;11.90;99.90;;;;;;4901176;29;20218;-73
2020/12/17 14:15:11;;;;;;;2.50;0.60;;;11.90;99.90;;;;;;4900958;29;20214;-73
2020/12/17 14:17:37;;;;;;;2.87;0.50;;;11.80;99.90;;;;;;4901362;29;20206;-72
2020/12/17 14:20:04;;;;;;;1.23;0.50;;;11.90;99.90;;;;;;4900977;29;20230;-72
2020/12/17 14:22:30;;;;;;;4.60;0.60;;;12.00;99.90;;;;;;4900953;29;20214;-73
2020/12/17 14:24:57;;;;;;;5.80;0.97;;;12.00;99.90;;;;;;4900706;29;20209;-72
2020/12/17 14:27:23;;;;;;;2.00;0.57;;;12.00;99.90;;;;;;4900455;29;20239;-72
2020/12/17 14:29:50;;;;;;;1.83;0.60;;;12.00;99.90;;;;;;4900178;29;20581;-73
2020/12/17 14:32:16;;;;;;;4.33;0.50;;;11.90;99.90;;;;;;4899598;29;20278;-72
2020/12/17 14:34:43;;;;;;;0.60;0.50;;;11.80;99.90;;;;;;4900198;29;20217;-72
2020/12/17 14:37:09;;;;;;;0.80;0.43;;;11.70;99.90;;;;;;4900484;29;20214;-71
2020/12/17 14:39:36;;;;;;;2.73;0.40;;;11.80;99.90;;;;;;4900691;29;20238;-73
2020/12/17 14:42:02;;;;;;;2.57;0.40;;;11.80;99.90;;;;;;4900374;29;20211;-72
2020/12/17 14:44:28;;;;;;;1.00;0.40;;;11.80;99.90;;;;;;4900207;29;20215;-72
2020/12/17 14:46:55;;;;;;;0.80;0.50;;;11.70;99.90;;;;;;4900347;29;20661;-73
2020/12/17 14:49:22;;;;;;;1.00;0.60;;;11.70;99.90;;;;;;4892698;29;20350;-72
2020/12/17 14:51:48;;;;;;;3.60;0.50;;;11.70;99.90;;;;;;4881132;29;20543;-72
2020/12/17 14:54:14;;;;;;;2.80;0.60;;;11.50;99.90;;;;;;4880815;29;20214;-72
2020/12/17 14:56:41;;;;;;;1.60;0.50;;;11.60;99.90;;;;;;4885149;29;20648;-71
2020/12/17 14:59:07;;;;;;;1.13;0.50;;;11.70;99.90;;;;;;4899488;29;20230;-71
2020/12/17 15:01:33;;;;;;;1.70;0.40;;;11.70;99.90;;;;;;4899859;29;20274;-71
2020/12/17 15:04:00;;;;;;;2.00;0.43;;;11.70;99.90;;;;;;4899348;29;20547;-70
2020/12/17 15:06:27;;;;;;;3.70;0.50;;;11.70;99.90;;;;;;4899355;29;20206;-71
2020/12/17 15:08:53;;;;;;;3.60;1.07;;;11.70;99.90;;;;;;4899690;29;20242;-70
2020/12/17 15:11:19;;;;;;;6.30;2.33;;;11.70;99.90;;;;;;4899472;29;20214;-69
2020/12/17 15:13:46;;;;;;;1.00;0.40;;;11.70;99.90;;;;;;4899900;29;20206;-69
2020/12/17 15:16:12;;;;;;;5.57;0.60;;;11.60;99.90;;;;;;4899786;29;20214;-74
2020/12/17 15:18:38;;;;;;;3.90;0.67;;;11.70;99.90;;;;;;4899250;29;20238;-69
2020/12/17 15:21:16;;;;;;;0.63;0.47;;;11.60;99.90;;;;;;4899239;29;20211;-69
2020/12/17 15:23:42;;;;;;;1.83;0.50;;;11.60;99.90;;;;;;4899291;29;20783;-68
2020/12/17 15:26:09;;;;;;;0.73;0.53;;;11.60;99.90;;;;;;4899420;29;20211;-69
2020/12/17 15:28:35;;;;;;;2.00;0.50;;;11.50;99.90;;;;;;4896240;29;20320;-74
2020/12/17 15:31:01;;;;;;;4.00;0.70;;;11.50;99.90;;;;;;4896144;29;20206;-71
2020/12/17 15:33:28;;;;;;;0.77;0.43;;;11.60;99.90;;;;;;4874694;29;20226;-71
2020/12/17 15:35:54;;;;;;;3.10;0.60;;;11.50;99.90;;;;;;4865142;29;20212;-71
2020/12/17 15:38:22;;;;;;;0.80;0.50;;;11.50;99.90;;;;;;4873498;29;20749;-70
2020/12/17 15:40:51;;;;;;;1.60;0.60;;;11.50;99.90;;;;;;4870744;29;20218;-72
2020/12/17 15:43:17;;;;;;;5.07;0.63;;;11.60;99.90;;;;;;4879621;29;20211;-69
2020/12/17 15:45:44;;;;;;;2.83;0.63;;;11.60;99.90;;;;;;4880177;29;20735;-71
2020/12/17 15:48:10;;;;;;;1.33;0.60;;;11.50;99.90;;;;;;4879988;29;20633;-75
2020/12/17 15:50:36;;;;;;;2.77;0.70;;;11.50;99.90;;;;;;4880456;29;20211;-74
2020/12/17 15:53:03;;;;;;;1.43;0.60;;;11.40;99.90;;;;;;4880155;29;20211;-74
2020/12/17 15:55:30;;;;;;;1.93;0.70;;;11.50;99.90;;;;;;4880196;29;20215;-73
2020/12/17 15:57:56;;;;;;;2.70;1.00;;;11.40;99.90;;;;;;4880267;29;20227;-71
2020/12/17 16:00:22;;;;;;;1.60;0.90;;;11.40;99.90;;;;;;4880008;29;20235;-76
2020/12/17 16:02:49;;;;;;;1.13;0.60;;;11.40;99.90;;;;;;4880347;29;20586;-76
2020/12/17 16:05:15;;;;;;;3.67;0.97;;;11.40;99.90;;;;;;4880763;29;20214;-76
2020/12/17 16:07:41;;;;;;;1.97;0.70;;;11.40;99.90;;;;;;4879334;29;20231;-71
2020/12/17 16:10:07;;;;;;;2.73;0.90;;;11.40;99.90;;;;;;4879808;29;20282;-72
2020/12/17 16:12:35;;;;;;;3.10;0.70;;;11.30;99.90;;;;;;4880103;29;20215;-71
2020/12/17 16:15:01;;;;;;;4.87;0.70;;;11.40;99.90;;;;;;4880055;29;20261;-70
2020/12/17 16:17:28;;;;;;;1.87;0.83;;;11.30;99.90;;;;;;4879697;29;20215;-71
2020/12/17 16:19:54;;;;;;;4.40;0.70;;;11.20;99.90;;;;;;4879790;29;20239;-72
2020/12/17 16:22:21;;;;;;;4.40;0.67;;;11.00;99.90;;;;;;4879866;29;20211;-71
2020/12/17 16:24:47;;;;;;;1.70;0.60;;;11.00;99.90;;;;;;4879833;29;20712;-71
2020/12/17 16:27:13;;;;;;;1.80;0.80;;;10.90;99.90;;;;;;4880018;29;20226;-71
2020/12/17 16:29:41;;;;;;;5.53;0.87;;;10.90;99.90;;;;;;4880170;29;20235;-69
2020/12/17 16:32:09;;;;;;;1.50;0.70;;;10.80;99.90;;;;;;4879900;29;20609;-70
2020/12/17 16:34:35;;;;;;;4.13;1.00;;;10.80;99.90;;;;;;4879581;29;20219;-71
2020/12/17 16:37:01;;;;;;;2.97;0.67;;;10.90;99.90;;;;;;4881836;29;20207;-71
2020/12/17 16:39:29;;;;;;;3.33;0.77;;;11.00;99.90;;;;;;4897314;29;20231;-70
2020/12/17 16:41:55;;;;;;;1.50;0.80;;;11.00;99.90;;;;;;4897330;29;20218;-73
2020/12/17 16:44:21;;;;;;;1.23;0.70;;;10.90;99.90;;;;;;4898428;29;20261;-72
2020/12/17 16:46:53;;;;;;;4.57;0.80;;;10.80;99.90;;;;;;4897715;29;20206;-73
2020/12/17 16:49:19;;;;;;;3.77;0.90;;;10.80;99.90;;;;;;4897759;29;20269;-73
2020/12/17 16:51:45;;;;;;;3.63;0.87;;;10.90;99.90;;;;;;4898041;29;20214;-73
2020/12/17 16:54:12;;;;;;;3.33;1.00;;;10.90;99.90;;;;;;4897434;29;20218;-72
2020/12/17 16:56:38;;;;;;;3.27;1.27;;;10.80;99.90;;;;;;4897882;29;20221;-73
2020/12/17 16:59:04;;;;;;;4.13;1.23;;;10.80;99.90;;;;;;4898528;29;20265;-74
2020/12/17 17:01:30;;;;;;;3.17;0.97;;;10.80;99.90;;;;;;4897847;29;20615;-71
2020/12/17 17:03:58;;;;;;;3.67;0.80;;;10.80;99.90;;;;;;4897942;29;20232;-73
2020/12/17 17:06:24;;;;;;;5.17;1.30;;;10.70;99.90;;;;;;4896908;29;20555;-74
2020/12/17 17:08:50;;;;;;;3.43;0.80;;;10.70;99.90;;;;;;4896808;29;20655;-72
2020/12/17 17:11:16;;;;;;;3.07;0.93;;;10.60;99.90;;;;;;4897614;29;20563;-75
2020/12/17 17:13:42;;;;;;;3.40;1.20;;;10.60;99.90;;;;;;4897500;29;20700;-71
2020/12/17 17:16:10;;;;;;;3.10;1.07;;;10.60;99.90;;;;;;4897886;29;20218;-73
2020/12/17 17:18:36;;;;;;;5.43;1.20;;;10.60;99.90;;;;;;4897178;29;20284;-72
2020/12/17 17:21:03;;;;;;;2.70;1.07;;;10.60;99.90;;;;;;4897654;29;20670;-73
2020/12/17 17:23:29;;;;;;;3.43;0.93;;;10.60;99.90;;;;;;4897690;29;20214;-73
2020/12/17 17:25:56;;;;;;;3.23;1.00;;;10.60;99.90;;;;;;4897826;29;20551;-73
2020/12/17 17:28:22;;;;;;;3.07;1.10;;;10.60;99.90;;;;;;4897579;29;20739;-73
2020/12/17 17:30:48;;;;;;;5.93;1.40;;;10.60;99.90;;;;;;4898626;29;20211;-74
2020/12/17 17:33:14;;;;;;;6.13;1.37;;;10.60;99.90;;;;;;4898114;29;20214;-73
2020/12/17 17:35:41;;;;;;;3.37;1.50;;;10.60;99.90;;;;;;4898134;29;20207;-72
2020/12/17 17:38:08;;;;;;;3.07;1.00;;;10.60;99.90;;;;;;4898248;29;20214;-72
2020/12/17 17:40:34;;;;;;;3.73;1.47;;;10.60;99.90;;;;;;4900983;29;20206;-73
2020/12/17 17:43:00;;;;;;;3.37;1.50;;;10.60;99.90;;;;;;4900549;29;20237;-73
2020/12/17 17:45:26;;;;;;;2.73;1.40;;;10.60;99.90;;;;;;4899827;29;20207;-73
2020/12/17 17:47:52;;;;;;;3.83;1.10;;;10.60;99.90;;;;;;4899110;29;20781;-73
2020/12/17 17:50:19;;;;;;;4.07;1.17;;;10.50;99.90;;;;;;4899337;29;20230;-73
2020/12/17 17:52:45;;;;;;;4.33;0.97;;;10.50;99.90;;;;;;4899793;29;20236;-73
2020/12/17 17:55:12;;;;;;;3.80;1.20;;;10.50;99.90;;;;;;4899651;29;20210;-71
2020/12/17 17:57:38;;;;;;;4.07;0.90;;;10.40;99.90;;;;;;4897569;29;20607;-70
2020/12/17 18:00:06;;;;;;;4.63;1.20;;;10.30;99.90;;;;;;4897495;29;20230;-71
2020/12/17 18:02:32;;;;;;;4.83;1.00;;;10.30;99.90;;;;;;4897090;29;20222;-71
2020/12/17 18:04:58;;;;;;;2.63;0.70;;;10.20;99.90;;;;;;4897362;29;20678;-72
2020/12/17 18:07:25;;;;;;;0.83;0.57;;;10.10;99.90;;;;;;4898954;29;20567;-71
2020/12/17 18:09:51;;;;;;;2.23;0.60;;;10.10;99.90;;;;;;4900965;29;20231;-70
2020/12/17 18:12:18;;;;;;;4.83;1.33;;;10.10;99.90;;;;;;4900932;29;20214;-73
2020/12/17 18:14:44;;;;;;;5.43;0.87;;;10.00;99.90;;;;;;4900610;29;20214;-73
2020/12/17 18:17:11;;;;;;;1.50;0.60;;;9.90;99.90;;;;;;4900668;29;20590;-73
2020/12/17 18:19:38;;;;;;;3.63;1.00;;;9.80;99.90;;;;;;4900266;29;20234;-72
2020/12/17 18:22:04;;;;;;;3.60;1.07;;;9.80;99.90;;;;;;4900470;29;20214;-74
2020/12/17 18:24:31;;;;;;;3.27;1.10;;;9.80;99.90;;;;;;4900661;29;20221;-72
2020/12/17 18:27:00;;;;;;;4.27;1.37;;;9.80;99.90;;;;;;4882937;29;20212;-72
2020/12/17 18:29:27;;;;;;;5.93;1.23;;;9.80;99.90;;;;;;4862290;29;20239;-73
2020/12/17 18:31:54;;;;;;;3.73;1.20;;;9.70;99.90;;;;;;4862879;29;20212;-72
2020/12/17 18:34:20;;;;;;;2.73;1.13;;;9.60;99.90;;;;;;4862649;29;20215;-73
2020/12/17 18:36:46;;;;;;;5.13;1.30;;;9.60;99.90;;;;;;4874625;29;20210;-73
2020/12/17 18:39:12;;;;;;;6.57;1.30;;;9.60;99.90;;;;;;4900139;29;20246;-74
2020/12/17 18:41:39;;;;;;;2.13;1.00;;;9.60;99.90;;;;;;4900445;29;20214;-71
2020/12/17 18:44:05;;;;;;;2.13;1.10;;;9.60;99.90;;;;;;4900250;29;20214;-70
2020/12/17 18:46:32;;;;;;;4.17;1.37;;;9.50;99.90;;;;;;4899646;29;20295;-71
2020/12/17 18:48:58;;;;;;;1.90;1.17;;;9.50;99.90;;;;;;4899310;29;20245;-73
2020/12/17 18:51:25;;;;;;;3.77;1.20;;;9.50;99.90;;;;;;4899947;29;20212;-70
2020/12/17 18:53:52;;;;;;;2.63;1.60;;;9.50;99.90;;;;;;4900269;29;20214;-71
2020/12/17 18:56:18;;;;;;;2.70;1.10;;;9.40;99.90;;;;;;4899129;29;20577;-74
2020/12/17 18:58:45;;;;;;;3.07;1.37;;;9.30;99.90;;;;;;4899329;29;20705;-73
2020/12/17 19:01:11;;;;;;;2.77;1.80;;;9.40;99.90;;;;;;4899843;29;20218;-71
2020/12/17 19:03:39;;;;;;;5.60;1.57;;;9.30;99.90;;;;;;4899291;29;20230;-70
2020/12/17 19:06:05;;;;;;;5.23;1.33;;;9.30;99.90;;;;;;4899132;29;20246;-76
2020/12/17 19:08:32;;;;;;;2.03;1.30;;;9.30;99.90;;;;;;4899430;29;20250;-77
2020/12/17 19:10:59;;;;;;;2.40;1.20;;;9.20;99.90;;;;;;4898715;29;20216;-70
2020/12/17 19:13:25;;;;;;;1.93;1.30;;;9.10;99.90;;;;;;4899747;29;20286;-71
2020/12/17 19:15:51;;;;;;;5.07;1.90;;;9.10;99.90;;;;;;4899898;29;20249;-73
2020/12/17 19:18:18;;;;;;;4.23;1.27;;;9.10;99.90;;;;;;4898817;29;20297;-74
2020/12/17 19:20:45;;;;;;;3.47;1.47;;;9.10;99.90;;;;;;4899429;29;20210;-73
2020/12/17 19:23:11;;;;;;;2.30;1.50;;;9.20;99.90;;;;;;4899320;29;20211;-72
2020/12/17 19:25:37;;;;;;;2.70;1.40;;;9.20;99.90;;;;;;4898846;29;20666;-69
2020/12/17 19:28:03;;;;;;;3.57;2.00;;;9.20;99.90;;;;;;4899072;29;20238;-71
2020/12/17 19:30:31;;;;;;;3.73;1.70;;;9.20;99.90;;;;;;4899411;29;20578;-72
2020/12/17 19:32:57;;;;;;;2.73;1.93;;;9.20;99.90;;;;;;4898902;29;20289;-72
2020/12/17 19:35:23;;;;;;;3.40;1.80;;;9.20;99.90;;;;;;4899133;29;20211;-70
2020/12/17 19:37:50;;;;;;;5.40;2.07;;;9.10;99.90;;;;;;4899090;29;20210;-72
2020/12/17 19:40:16;;;;;;;3.20;1.73;;;9.10;99.90;;;;;;4899033;29;20253;-74
2020/12/17 19:42:44;;;;;;;3.30;1.60;;;9.10;99.90;;;;;;4899064;29;20685;-73
2020/12/17 19:45:11;;;;;;;4.07;1.63;;;9.10;99.90;;;;;;4899839;29;20214;-74
2020/12/17 19:47:38;;;;;;;3.20;1.73;;;9.10;99.90;;;;;;4898341;29;20233;-71
2020/12/17 19:50:04;;;;;;;4.80;2.20;;;9.10;99.90;;;;;;4898654;29;20710;-71
2020/12/17 19:52:31;;;;;;;2.67;1.60;;;9.10;99.90;;;;;;4898694;29;20274;-72
2020/12/17 19:54:58;;;;;;;3.80;2.20;;;9.10;99.90;;;;;;4898869;29;20210;-70
2020/12/17 19:57:24;;;;;;;5.33;1.87;;;9.00;99.90;;;;;;4898428;29;20219;-71
2020/12/17 19:59:50;;;;;;;5.40;2.10;;;9.00;99.90;;;;;;4898567;29;20226;-70
2020/12/17 20:02:16;;;;;;;4.77;2.33;;;9.00;99.90;;;;;;4898713;29;20218;-71
2020/12/17 20:04:42;;;;;;;3.70;2.17;;;9.00;99.90;;;;;;4885822;29;20214;-67
2020/12/17 20:07:09;;;;;;;4.60;2.10;;;9.00;99.90;;;;;;4895288;29;20210;-71
2020/12/17 20:09:36;;;;;;;4.70;2.00;;;8.90;99.90;;;;;;4898835;29;20276;-70
2020/12/17 20:12:03;;;;;;;4.57;2.00;;;8.90;99.90;;;;;;4898852;29;20682;-71
2020/12/17 20:14:31;;;;;;;4.27;2.07;;;8.80;99.90;;;;;;4898776;29;20215;-69
2020/12/17 20:16:57;;;;;;;4.07;2.20;;;8.80;99.90;;;;;;4898769;29;20257;-71
2020/12/17 20:19:23;;;;;;;4.57;2.23;;;8.80;99.90;;;;;;4898590;29;20297;-70
2020/12/17 20:21:49;;;;;;;7.43;2.33;;;8.80;99.90;;;;;;4898584;29;20217;-70
2020/12/17 20:24:16;;;;;;;4.77;2.40;;;8.80;99.90;;;;;;4898612;29;20677;-68
2020/12/17 20:26:42;;;;;;;5.27;1.90;;;8.80;99.90;;;;;;4898613;29;20214;-70
2020/12/17 20:29:11;;;;;;;2.40;1.60;;;8.80;99.90;;;;;;4897675;29;20242;-71
2020/12/17 20:31:38;;;;;;;6.83;2.27;;;8.70;99.90;;;;;;4898179;29;20221;-70
2020/12/17 20:34:05;;;;;;;2.93;1.63;;;8.70;99.90;;;;;;4898455;29;20301;-71
2020/12/17 20:36:32;;;;;;;3.10;1.70;;;8.70;99.90;;;;;;4898484;29;20210;-68
2020/12/17 20:38:59;;;;;;;4.33;1.90;;;8.70;99.90;;;;;;4898402;29;20257;-70
2020/12/17 20:41:27;;;;;;;4.40;1.83;;;8.70;99.90;;;;;;4898348;29;20214;-70
2020/12/17 20:43:56;;;;;;;4.13;2.20;;;8.70;99.90;;;;;;4898305;29;20210;-71
2020/12/17 20:46:23;;;;;;;3.40;1.90;;;8.80;99.90;;;;;;4898412;29;20218;-71
2020/12/17 20:48:49;;;;;;;4.97;2.00;;;8.70;99.90;;;;;;4898089;29;20238;-67
2020/12/17 20:51:16;;;;;;;4.90;1.83;;;8.70;99.90;;;;;;4898426;29;20214;-70
2020/12/17 20:53:43;;;;;;;5.97;2.13;;;8.80;99.90;;;;;;4898302;29;20217;-71
2020/12/17 20:56:10;;;;;;;6.37;2.30;;;8.80;99.90;;;;;;4898249;29;20211;-70
2020/12/17 20:58:37;;;;;;;4.67;2.10;;;8.80;99.90;;;;;;4898150;29;20238;-69
2020/12/17 21:01:05;;;;;;;5.30;1.93;;;8.80;99.90;;;;;;4897979;29;20558;-72
2020/12/17 21:03:33;;;;;;;3.50;1.90;;;8.80;99.90;;;;;;4897781;29;20555;-71
2020/12/17 21:05:59;;;;;;;3.43;2.03;;;8.70;99.90;;;;;;4898249;29;20274;-68
2020/12/17 21:08:26;;;;;;;3.83;2.00;;;8.70;99.90;;;;;;4897854;29;20268;-69
2020/12/17 21:10:52;;;;;;;7.73;2.27;;;8.70;99.90;;;;;;4897942;29;20681;-71
2020/12/17 21:13:19;;;;;;;4.00;2.20;;;8.60;99.90;;;;;;4898260;29;20599;-72
2020/12/17 21:15:45;;;;;;;5.77;2.50;;;8.60;99.90;;;;;;4897905;29;20210;-71
2020/12/17 21:18:11;;;;;;;5.47;2.10;;;8.60;99.90;;;;;;4897673;29;20270;-71
2020/12/17 21:20:39;;;;;;;7.00;1.97;;;8.60;99.90;;;;;;4898163;29;20210;-72
2020/12/17 21:23:05;;;;;;;5.80;2.13;;;8.60;99.90;;;;;;4898022;29;20215;-70
2020/12/17 21:25:33;;;;;;;2.97;1.67;;;8.60;99.90;;;;;;4898006;29;20213;-72
2020/12/17 21:27:59;;;;;;;4.40;1.70;;;8.60;99.90;;;;;;4897776;29;20244;-71
2020/12/17 21:30:25;;;;;;;2.70;1.83;;;8.60;99.90;;;;;;4897591;29;20274;-72
2020/12/17 21:32:51;;;;;;;2.57;1.60;;;8.50;99.90;;;;;;4897601;29;20206;-72
2020/12/17 21:35:18;;;;;;;3.50;1.80;;;8.50;99.90;;;;;;4897898;29;20662;-71
2020/12/17 21:37:46;;;;;;;4.43;1.93;;;8.60;99.90;;;;;;4897824;29;20214;-72
2020/12/17 21:40:12;;;;;;;3.33;1.60;;;8.50;99.90;;;;;;4898098;29;20234;-72
2020/12/17 21:42:38;;;;;;;3.03;1.43;;;8.50;99.90;;;;;;4901505;29;20206;-71
2020/12/17 21:45:04;;;;;;;5.63;1.73;;;8.50;99.90;;;;;;4901224;29;20207;-72
2020/12/17 21:47:33;;;;;;;3.23;2.03;;;8.50;99.90;;;;;;4901426;29;20266;-71
2020/12/17 21:49:59;;;;;;;3.67;1.63;;;8.50;99.90;;;;;;4901115;29;20234;-71
2020/12/17 21:52:25;;;;;;;2.93;1.93;;;8.40;99.90;;;;;;4901342;29;20206;-71
2020/12/17 21:54:52;;;;;;;7.43;1.90;;;8.30;99.90;;;;;;4901288;29;20207;-68
2020/12/17 21:57:18;;;;;;;5.60;1.97;;;8.30;99.90;;;;;;4901260;29;20210;-69
2020/12/17 21:59:45;;;;;;;3.20;1.80;;;8.30;99.90;;;;;;4900944;29;20713;-69
